Terminal Aerodrome Forecast
Issued by NWS

Current Version | Previous Version | Graphics & Text | Print | Product List | Glossary On
Versions: 1 2 3 4 5 6 7 8 9 10 11 12 13 14 15 16 17 18
715
FTUS41 KILN 232100 AAA
TAFLUK
TAF AMD
KLUK 232100Z 2321/2418 11005KT P6SM FEW060 BKN120
     FM241000 12003KT P6SM VCSH OVC080
     FM241300 14004KT P6SM -SHRA OVC040
     FM241600 16007KT 5SM -SHRA OVC025=

USA.gov is the U.S. government's official web portal to all federal, state and local government web resources and services.